Time;durP1;ratioP1;P1;durP2;ratioP2;P2;SDS_P1;SDS_P2;PMS_P1;PMS_P2;Temp;Humidity;BMP_temperature;BMP_pressure;BME280_temperature;BME280_humidity;BME280_pressure;Samples;Min_cycle;Max_cycle;Signal;HPM_P1;HPM_P2
2022/01/08 00:00:17;;;;;;;36.03;33.13;;;7.40;99.90;;;;;;5026501;28;20064;-78
2022/01/08 00:02:43;;;;;;;34.35;31.30;;;7.40;99.90;;;;;;5026290;28;20074;-78
2022/01/08 00:05:09;;;;;;;;;;;7.40;99.90;;;;;;5010278;28;20030;-78
2022/01/08 00:07:35;;;;;;;32.17;29.48;;;7.40;99.90;;;;;;5027398;28;19921;-78
2022/01/08 00:10:01;;;;;;;35.80;32.03;;;7.40;99.90;;;;;;5026235;28;20051;-77
2022/01/08 00:12:27;;;;;;;36.88;33.42;;;7.40;99.90;;;;;;5027507;28;20083;-78
2022/01/08 00:14:52;;;;;;;36.10;32.65;;;7.40;99.90;;;;;;5025887;28;20117;-78
2022/01/08 00:17:22;;;;;;;35.30;32.90;;;7.40;99.90;;;;;;5009615;28;20128;-78
2022/01/08 00:19:49;;;;;;;32.70;30.50;;;7.50;99.90;;;;;;5027017;28;20034;-78
2022/01/08 00:22:15;;;;;;;35.15;31.45;;;7.50;99.90;;;;;;5027374;28;20063;-77
2022/01/08 00:24:41;;;;;;;34.50;31.25;;;7.50;99.90;;;;;;5027387;28;20055;-78
2022/01/08 00:27:06;;;;;;;34.20;30.80;;;7.60;99.90;;;;;;5027500;28;20033;-78
2022/01/08 00:29:32;;;;;;;33.72;30.95;;;7.60;99.90;;;;;;5029626;28;20591;-78
2022/01/08 00:31:58;;;;;;;33.00;30.05;;;7.60;99.90;;;;;;5013117;28;20061;-78
2022/01/08 00:34:24;;;;;;;34.80;31.30;;;7.70;99.90;;;;;;5029746;28;20060;-77
2022/01/08 00:36:49;;;;;;;35.70;31.23;;;7.70;99.90;;;;;;5013256;28;20117;-77
2022/01/08 00:39:15;;;;;;;36.00;32.45;;;7.70;99.90;;;;;;5029480;28;20092;-78
2022/01/08 00:41:41;;;;;;;35.17;32.10;;;7.70;99.90;;;;;;5030775;28;20021;-77
2022/01/08 00:44:06;;;;;;;30.55;27.92;;;7.80;99.90;;;;;;5030721;28;20025;-77
2022/01/08 00:46:34;;;;;;;28.73;25.70;;;7.80;99.90;;;;;;5012988;28;20519;-78
2022/01/08 00:49:00;;;;;;;29.77;27.48;;;7.80;99.90;;;;;;5029313;28;20048;-77
2022/01/08 00:51:26;;;;;;;34.70;29.02;;;7.80;99.90;;;;;;5030622;28;20021;-78
2022/01/08 00:53:52;;;;;;;32.80;30.52;;;7.80;99.90;;;;;;5030903;28;20430;-78
2022/01/08 00:56:18;;;;;;;30.67;27.67;;;7.80;99.90;;;;;;5012764;28;20037;-78
2022/01/08 00:58:43;;;;;;;28.83;25.80;;;7.80;99.90;;;;;;5029232;28;20107;-77
2022/01/08 01:01:09;;;;;;;29.90;27.55;;;7.90;99.90;;;;;;5030443;28;20133;-77
2022/01/08 01:03:36;;;;;;;30.75;27.92;;;7.90;99.90;;;;;;5012894;28;20038;-78
2022/01/08 01:06:02;;;;;;;28.38;25.95;;;7.90;99.90;;;;;;5030485;28;20071;-78
2022/01/08 01:08:29;;;;;;;30.60;28.08;;;7.90;99.90;;;;;;5030398;28;20089;-78
2022/01/08 01:10:54;;;;;;;32.40;29.73;;;7.90;99.90;;;;;;5030247;28;20048;-78
2022/01/08 01:13:20;;;;;;;32.08;30.00;;;7.90;99.90;;;;;;5029059;28;20038;-78
2022/01/08 01:15:46;;;;;;;30.27;28.08;;;8.00;99.90;;;;;;5012459;28;20037;-78
2022/01/08 01:18:12;;;;;;;27.13;25.45;;;8.00;99.90;;;;;;5012330;28;20101;-78
2022/01/08 01:20:38;;;;;;;32.60;30.48;;;8.00;99.90;;;;;;5028905;28;20111;-78
2022/01/08 01:25:43;;;;;;;37.63;33.92;;;8.00;99.90;;;;;;5028872;28;20021;-78
2022/01/08 01:41:44;;;;;;;37.85;34.65;;;8.00;99.90;;;;;;5029281;28;20035;-77
2022/01/08 01:47:04;;;;;;;32.03;29.70;;;8.00;99.90;;;;;;5028481;28;20149;-78
2022/01/08 01:49:36;;;;;;;34.75;31.73;;;8.00;99.90;;;;;;5029561;28;20037;-78
2022/01/08 01:52:04;;;;;;;31.13;29.08;;;8.00;99.90;;;;;;5028287;28;20095;-78
2022/01/08 01:54:31;;;;;;;35.40;32.78;;;8.00;99.90;;;;;;5028191;28;20504;-78
2022/01/08 01:56:58;;;;;;;34.95;32.10;;;8.00;99.90;;;;;;5029482;28;20044;-78
2022/01/08 01:59:28;;;;;;;34.50;32.22;;;8.00;99.90;;;;;;5028114;28;20037;-78
2022/01/08 02:01:55;;;;;;;34.10;31.70;;;8.00;99.90;;;;;;5029364;28;20049;-78
2022/01/08 02:04:21;;;;;;;32.40;29.25;;;8.00;99.90;;;;;;5029348;28;20079;-78
2022/01/08 02:06:47;;;;;;;30.23;27.92;;;8.10;99.90;;;;;;5027889;28;20049;-77
2022/01/08 02:09:13;;;;;;;30.08;27.25;;;8.10;99.90;;;;;;5029094;28;20025;-78
2022/01/08 02:12:07;;;;;;;31.17;28.38;;;8.10;99.90;;;;;;5029011;28;20075;-78
2022/01/08 02:14:36;;;;;;;29.90;27.45;;;8.20;99.90;;;;;;5029038;28;20053;-77
2022/01/08 02:17:05;;;;;;;28.38;26.00;;;8.20;99.90;;;;;;5027780;28;20091;-77
2022/01/08 02:19:31;;;;;;;26.98;24.77;;;8.20;99.90;;;;;;5028860;28;20471;-77
2022/01/08 02:21:59;;;;;;;28.23;25.98;;;8.30;99.90;;;;;;5029109;28;20036;-78
2022/01/08 02:24:25;;;;;;;26.45;24.40;;;8.30;99.90;;;;;;5028903;28;20361;-77
2022/01/08 02:26:51;;;;;;;24.67;23.17;;;8.30;99.90;;;;;;5027587;28;20048;-77
2022/01/08 02:29:19;;;;;;;25.73;23.48;;;8.30;99.90;;;;;;5028681;28;20463;-78
2022/01/08 02:32:00;;;;;;;25.67;24.00;;;8.30;99.90;;;;;;5027577;28;20065;-78
2022/01/08 02:34:27;;;;;;;25.27;21.13;;;8.40;99.90;;;;;;5027384;28;20040;-77
2022/01/08 02:36:54;;;;;;;24.90;22.65;;;8.40;99.90;;;;;;5027400;28;20028;-77
2022/01/08 02:39:20;;;;;;;24.02;21.83;;;8.40;99.90;;;;;;5028779;28;20036;-77
2022/01/08 02:41:46;;;;;;;23.50;21.67;;;8.40;99.90;;;;;;5028485;28;20033;-77
2022/01/08 02:44:12;;;;;;;23.10;21.13;;;8.50;99.90;;;;;;5027237;28;20087;-78
2022/01/08 02:46:39;;;;;;;;;;;8.50;99.90;;;;;;5028861;28;20025;-77
2022/01/08 02:49:06;;;;;;;19.23;18.33;;;8.60;99.90;;;;;;5009993;28;20286;-78
2022/01/08 02:51:34;;;;;;;20.20;18.63;;;8.60;99.90;;;;;;5028436;28;20017;-77
2022/01/08 02:54:00;;;;;;;19.48;18.13;;;8.70;99.90;;;;;;5027245;28;20384;-77
2022/01/08 02:56:26;;;;;;;;;;;8.70;99.90;;;;;;5028874;28;20037;-77
2022/01/08 02:58:51;;;;;;;21.85;20.38;;;8.70;99.90;;;;;;5028007;28;20330;-77
2022/01/08 03:01:17;;;;;;;20.98;18.95;;;8.70;99.90;;;;;;5026865;28;20464;-77
2022/01/08 03:03:43;;;;;;;19.92;18.73;;;8.70;99.90;;;;;;5028041;28;20041;-77
2022/01/08 03:06:09;;;;;;;18.30;17.20;;;8.80;99.90;;;;;;5026872;28;20101;-77
2022/01/08 03:08:34;;;;;;;21.30;18.58;;;8.80;99.90;;;;;;4993883;28;20391;-77
2022/01/08 03:11:00;;;;;;;20.40;18.65;;;8.80;99.90;;;;;;5028063;28;20022;-77
2022/01/08 03:13:26;;;;;;;19.40;18.20;;;8.80;99.90;;;;;;5026971;28;20134;-77
2022/01/08 03:15:51;;;;;;;19.17;17.90;;;8.80;99.90;;;;;;5027988;28;20086;-77
2022/01/08 03:18:17;;;;;;;20.95;19.15;;;8.90;99.90;;;;;;5027904;28;20068;-77
2022/01/08 03:20:53;;;;;;;17.50;16.27;;;8.90;99.90;;;;;;5028061;28;20032;-77
2022/01/08 03:23:20;;;;;;;20.40;18.85;;;8.90;99.90;;;;;;5026644;28;20491;-77
2022/01/08 03:25:46;;;;;;;20.85;19.33;;;9.00;99.90;;;;;;5027936;28;20109;-78
2022/01/08 03:28:11;;;;;;;18.75;17.55;;;9.00;99.90;;;;;;5027715;28;20503;-77
2022/01/08 03:30:39;;;;;;;20.10;19.10;;;9.00;99.90;;;;;;5026520;28;20507;-77
2022/01/08 03:33:04;;;;;;;21.30;19.98;;;9.00;99.90;;;;;;5026572;28;20531;-77
2022/01/08 03:35:30;;;;;;;20.80;19.52;;;9.00;99.90;;;;;;5010095;28;20073;-78
2022/01/08 03:37:56;;;;;;;22.80;21.38;;;9.00;99.90;;;;;;5027742;28;20458;-77
2022/01/08 03:40:22;;;;;;;24.50;23.10;;;9.00;99.90;;;;;;5027725;28;20063;-77
2022/01/08 03:42:47;;;;;;;27.00;25.52;;;9.00;99.90;;;;;;5009956;28;20084;-77
2022/01/08 03:45:13;;;;;;;27.08;25.52;;;9.00;99.90;;;;;;5027541;28;20041;-77
2022/01/08 03:50:28;;;;;;;21.45;20.42;;;9.00;99.90;;;;;;5007833;28;20411;-77
2022/01/08 03:52:53;;;;;;;23.63;22.13;;;9.00;99.90;;;;;;5027760;28;20030;-77
2022/01/08 03:55:19;;;;;;;20.13;19.02;;;9.00;99.90;;;;;;5027734;28;20088;-77
2022/01/08 03:57:45;;;;;;;21.77;20.08;;;9.00;99.90;;;;;;5027621;28;20026;-78
2022/01/08 04:00:12;;;;;;;25.02;22.77;;;9.10;99.90;;;;;;5026199;28;20041;-77
2022/01/08 04:02:37;;;;;;;22.13;20.73;;;9.10;99.90;;;;;;5031444;28;20028;-77
2022/01/08 04:05:04;;;;;;;24.25;22.15;;;9.10;99.90;;;;;;5030273;28;20419;-77
2022/01/08 04:07:29;;;;;;;23.50;22.02;;;9.10;99.90;;;;;;5030225;28;20394;-77
2022/01/08 04:09:55;;;;;;;25.38;23.58;;;9.10;99.90;;;;;;5030015;28;20128;-77
2022/01/08 04:12:31;;;;;;;26.50;25.08;;;9.10;99.90;;;;;;5031395;28;20083;-77
2022/01/08 04:15:05;;;;;;;27.73;26.17;;;9.20;99.90;;;;;;5030236;28;20486;-77
2022/01/08 04:17:31;;;;;;;32.25;30.17;;;9.20;99.90;;;;;;5031295;28;20079;-78
2022/01/08 04:19:57;;;;;;;34.17;32.25;;;9.10;99.90;;;;;;5029935;28;20049;-77
2022/01/08 04:22:24;;;;;;;38.08;35.38;;;9.10;99.90;;;;;;5031271;28;20053;-77
2022/01/08 04:24:50;;;;;;;37.65;35.40;;;9.10;99.90;;;;;;5029823;28;20026;-78
2022/01/08 04:27:16;;;;;;;39.38;37.25;;;9.10;99.90;;;;;;5013413;28;20491;-78
2022/01/08 04:29:41;;;;;;;39.22;37.03;;;9.10;99.90;;;;;;5029506;28;20446;-78
2022/01/08 04:32:07;;;;;;;37.80;36.20;;;9.10;99.90;;;;;;5029774;28;20094;-78
2022/01/08 04:34:33;;;;;;;40.78;38.88;;;9.10;99.90;;;;;;5029752;28;20037;-77
2022/01/08 04:36:59;;;;;;;41.95;39.65;;;9.10;99.90;;;;;;5029616;28;20030;-78
2022/01/08 04:39:26;;;;;;;42.17;39.85;;;9.10;99.90;;;;;;5030815;28;20040;-78
2022/01/08 04:41:52;;;;;;;39.50;37.78;;;9.10;99.90;;;;;;5030868;28;20395;-78
2022/01/08 04:44:18;;;;;;;39.42;37.78;;;9.20;99.90;;;;;;5029409;28;20029;-77
2022/01/08 04:46:44;;;;;;;46.75;44.63;;;9.20;99.90;;;;;;5029473;28;20041;-78
2022/01/08 04:49:10;;;;;;;46.35;44.30;;;9.20;99.90;;;;;;5029376;28;20119;-78
2022/01/08 04:51:35;;;;;;;49.85;47.45;;;9.20;99.90;;;;;;5030819;28;20477;-78
2022/01/08 04:54:01;;;;;;;46.72;44.58;;;9.20;99.90;;;;;;5030699;28;20033;-77
2022/01/08 04:56:27;;;;;;;48.53;46.28;;;9.30;99.90;;;;;;5030594;28;20033;-78
2022/01/08 04:58:52;;;;;;;50.65;48.25;;;9.30;99.90;;;;;;5030386;28;20040;-78
2022/01/08 05:01:19;;;;;;;48.15;46.05;;;9.30;99.90;;;;;;5030481;28;20033;-78
2022/01/08 05:03:44;;;;;;;47.30;45.30;;;9.30;99.90;;;;;;5029061;28;20068;-78
2022/01/08 05:06:10;;;;;;;47.75;45.65;;;9.30;99.90;;;;;;5029312;28;20061;-77
2022/01/08 05:08:36;;;;;;;50.47;48.13;;;9.40;99.90;;;;;;5030411;28;20029;-78
2022/01/08 05:11:02;;;;;;;52.30;49.90;;;9.40;99.90;;;;;;5012678;28;20480;-78
2022/01/08 05:13:28;;;;;;;55.03;52.33;;;9.40;99.90;;;;;;5029402;28;20084;-78
2022/01/08 05:15:54;;;;;;;;;;;9.40;99.90;;;;;;5029428;28;20109;-77
2022/01/08 05:18:20;;;;;;;57.47;54.88;;;9.50;99.90;;;;;;5028982;28;20367;-78
2022/01/08 05:20:55;;;;;;;60.58;57.58;;;9.50;99.90;;;;;;5030093;28;20036;-78
2022/01/08 05:23:21;;;;;;;59.90;57.10;;;9.50;99.90;;;;;;5028843;28;20030;-78
2022/01/08 05:25:47;;;;;;;60.95;58.08;;;9.50;99.90;;;;;;5028678;28;20038;-78
2022/01/08 05:28:12;;;;;;;61.55;58.78;;;9.50;99.90;;;;;;5028521;28;20053;-78
2022/01/08 05:30:38;;;;;;;59.60;56.90;;;9.50;99.90;;;;;;5029927;28;20091;-78
2022/01/08 05:33:04;;;;;;;60.80;57.80;;;9.50;99.90;;;;;;5012247;28;20030;-78
2022/01/08 05:35:29;;;;;;;61.97;58.97;;;9.50;99.90;;;;;;5029800;28;20484;-77
2022/01/08 05:37:56;;;;;;;63.78;60.58;;;9.50;99.90;;;;;;5012221;28;20038;-78
2022/01/08 05:40:22;;;;;;;64.47;61.30;;;9.60;99.90;;;;;;5029688;28;20036;-78
2022/01/08 05:42:48;;;;;;;63.13;60.22;;;9.60;99.90;;;;;;5028455;28;20385;-77
2022/01/08 05:45:13;;;;;;;58.10;55.40;;;9.60;99.90;;;;;;5028338;28;20021;-78
2022/01/08 05:47:39;;;;;;;60.03;57.28;;;9.60;99.90;;;;;;5028326;28;20030;-77
2022/01/08 05:50:07;;;;;;;61.42;58.53;;;9.60;99.90;;;;;;5028033;28;20043;-78
2022/01/08 05:52:33;;;;;;;61.40;58.55;;;9.70;99.90;;;;;;5028513;28;20061;-78
2022/01/08 05:54:59;;;;;;;62.20;59.30;;;9.70;99.90;;;;;;5029542;28;20441;-78
2022/01/08 05:57:24;;;;;;;64.28;61.17;;;9.70;99.90;;;;;;5028152;28;20427;-77
2022/01/08 05:59:50;;;;;;;63.25;60.15;;;9.70;99.90;;;;;;5027933;28;20144;-77
2022/01/08 06:02:16;;;;;;;62.50;59.40;;;9.80;99.90;;;;;;5029018;28;20418;-77
2022/01/08 06:04:42;;;;;;;60.65;57.30;;;9.80;99.90;;;;;;5028029;28;20562;-77
2022/01/08 06:07:08;;;;;;;64.57;61.58;;;9.80;99.90;;;;;;5029207;28;20038;-77
2022/01/08 06:09:33;;;;;;;59.40;56.67;;;9.80;99.90;;;;;;4995329;28;20036;-77
2022/01/08 06:11:59;;;;;;;60.13;57.33;;;9.90;99.90;;;;;;5027745;28;20037;-77
2022/01/08 06:14:25;;;;;;;61.65;58.47;;;9.90;99.90;;;;;;5029109;28;20044;-77
2022/01/08 06:16:51;;;;;;;60.42;57.70;;;9.90;99.90;;;;;;5029028;28;20049;-78
2022/01/08 06:19:17;;;;;;;61.63;58.78;;;9.90;99.90;;;;;;5028867;28;20048;-77
2022/01/08 06:21:43;;;;;;;;;;;9.90;99.90;;;;;;5029419;28;20041;-77
2022/01/08 06:24:09;;;;;;;56.90;54.38;;;9.90;99.90;;;;;;5028920;28;19959;-77
2022/01/08 06:26:35;;;;;;;60.42;57.53;;;9.90;99.90;;;;;;5027525;28;20049;-77
2022/01/08 06:29:01;;;;;;;;;;;10.00;99.90;;;;;;5011178;28;20091;-78
2022/01/08 06:31:27;;;;;;;61.92;58.95;;;10.00;99.90;;;;;;5028763;28;19908;-77
2022/01/08 06:33:53;;;;;;;;;;;10.00;99.90;;;;;;5029162;28;20029;-78
2022/01/08 06:36:19;;;;;;;62.45;59.55;;;10.00;99.90;;;;;;5028744;28;19909;-78
2022/01/08 06:38:46;;;;;;;63.85;60.65;;;10.00;99.90;;;;;;5027259;28;20128;-77
2022/01/08 06:41:12;;;;;;;61.53;58.53;;;10.00;99.90;;;;;;5028525;28;20391;-78
2022/01/08 06:43:38;;;;;;;60.80;57.90;;;10.00;99.90;;;;;;5028472;28;20021;-78
2022/01/08 06:46:03;;;;;;;61.40;58.60;;;10.10;99.90;;;;;;5027297;28;20419;-78
2022/01/08 06:48:29;;;;;;;64.28;61.22;;;10.00;99.90;;;;;;5027256;28;20075;-78
2022/01/08 06:50:55;;;;;;;58.80;56.03;;;10.10;99.90;;;;;;5028380;28;20049;-78
2022/01/08 06:53:20;;;;;;;58.83;56.08;;;10.10;99.90;;;;;;5010647;28;20444;-78
2022/01/08 06:55:46;;;;;;;57.60;54.80;;;10.10;99.90;;;;;;5027063;28;20037;-78
2022/01/08 06:58:12;;;;;;;57.83;55.15;;;10.10;99.90;;;;;;5028168;28;20026;-78
2022/01/08 07:00:39;;;;;;;60.38;57.47;;;10.10;99.90;;;;;;5026876;28;20036;-78
2022/01/08 07:03:09;;;;;;;58.33;55.63;;;10.10;99.90;;;;;;5027085;28;20350;-78
2022/01/08 07:05:36;;;;;;;62.63;59.72;;;10.10;99.90;;;;;;5026707;28;20060;-78
2022/01/08 07:08:01;;;;;;;;;;;10.10;99.90;;;;;;5010666;28;20026;-78
2022/01/08 07:10:27;;;;;;;62.65;59.72;;;10.20;99.90;;;;;;5027674;28;19909;-78
2022/01/08 07:12:52;;;;;;;63.50;60.50;;;10.20;99.90;;;;;;5026608;28;20036;-78
2022/01/08 07:15:18;;;;;;;70.35;65.78;;;10.20;99.90;;;;;;5026498;28;20427;-78
2022/01/08 07:17:44;;;;;;;68.63;64.28;;;10.20;99.90;;;;;;5026668;28;20030;-78
2022/01/08 07:20:10;;;;;;;66.03;62.13;;;10.20;99.90;;;;;;5009899;28;20033;-77
2022/01/08 07:22:36;;;;;;;70.47;65.90;;;10.10;99.90;;;;;;5027884;28;20025;-78
2022/01/08 07:25:03;;;;;;;67.93;64.13;;;10.20;99.90;;;;;;5026446;28;20040;-78
2022/01/08 07:27:32;;;;;;;69.60;64.82;;;10.10;99.90;;;;;;5026582;28;20080;-78
2022/01/08 07:29:58;;;;;;;66.95;62.85;;;10.10;99.90;;;;;;5027311;28;20102;-78
2022/01/08 07:32:24;;;;;;;66.00;61.55;;;10.00;99.90;;;;;;5010127;28;20033;-78
2022/01/08 07:34:49;;;;;;;64.43;60.40;;;10.00;99.90;;;;;;5010110;28;20081;-78
2022/01/08 07:37:15;;;;;;;59.35;55.55;;;10.00;99.90;;;;;;5009801;28;20057;-77
2022/01/08 07:39:41;;;;;;;65.30;60.40;;;10.00;99.90;;;;;;5009982;28;20535;-78
2022/01/08 07:42:06;;;;;;;59.15;55.25;;;10.00;99.90;;;;;;5027543;28;20029;-77
2022/01/08 07:44:32;;;;;;;60.85;56.58;;;10.00;99.90;;;;;;5026416;28;20042;-77
2022/01/08 07:47:00;;;;;;;59.85;55.33;;;10.00;99.90;;;;;;5027939;28;20018;-77
2022/01/08 07:49:26;;;;;;;59.47;55.20;;;9.90;99.90;;;;;;5009884;28;20495;-77
2022/01/08 07:51:52;;;;;;;56.13;51.65;;;9.90;99.90;;;;;;5025956;28;20408;-77
2022/01/08 07:54:17;;;;;;;59.10;54.33;;;9.90;99.90;;;;;;5026048;28;20033;-77
2022/01/08 07:56:43;;;;;;;58.45;54.33;;;9.90;99.90;;;;;;5026157;28;20036;-77
2022/01/08 07:59:09;;;;;;;63.15;58.13;;;9.80;99.90;;;;;;5026061;28;20053;-78
2022/01/08 08:01:35;;;;;;;59.50;54.85;;;9.80;99.90;;;;;;5027476;28;20065;-77
2022/01/08 08:04:00;;;;;;;64.32;58.88;;;9.80;99.90;;;;;;5026067;28;20042;-78
2022/01/08 08:06:26;;;;;;;61.63;57.30;;;9.80;99.90;;;;;;5026053;28;20064;-77
2022/01/08 08:08:52;;;;;;;67.65;61.80;;;9.70;99.90;;;;;;5026224;28;20030;-78
2022/01/08 08:11:17;;;;;;;75.20;67.85;;;9.70;99.90;;;;;;5026204;28;20528;-77
2022/01/08 08:13:43;;;;;;;64.85;60.22;;;9.70;99.90;;;;;;5025982;28;20069;-78
2022/01/08 08:16:09;;;;;;;66.13;60.70;;;9.60;99.90;;;;;;5027361;28;20034;-77
2022/01/08 08:18:34;;;;;;;69.07;63.38;;;9.60;99.90;;;;;;5025756;28;20434;-78
2022/01/08 08:21:00;;;;;;;61.47;57.00;;;9.60;99.90;;;;;;5025910;28;20037;-78
2022/01/08 08:23:26;;;;;;;59.03;53.85;;;9.50;99.90;;;;;;5026039;28;20033;-78
2022/01/08 08:25:51;;;;;;;57.00;52.20;;;9.40;99.90;;;;;;5026030;28;20079;-78
2022/01/08 08:28:17;;;;;;;51.55;47.05;;;9.30;99.90;;;;;;5009168;28;20487;-78
2022/01/08 08:30:43;;;;;;;50.33;45.80;;;9.30;99.90;;;;;;5025725;28;20087;-78
2022/01/08 08:33:08;;;;;;;45.17;41.53;;;9.20;99.90;;;;;;5027239;28;20529;-77
2022/01/08 08:35:34;;;;;;;43.38;39.72;;;9.10;99.90;;;;;;5027175;28;20045;-78
2022/01/08 08:38:01;;;;;;;47.28;43.15;;;9.10;99.90;;;;;;5025608;28;20033;-77
2022/01/08 08:40:26;;;;;;;;;;;9.00;99.90;;;;;;5026234;28;20120;-78
2022/01/08 08:42:52;;;;;;;48.33;43.65;;;8.90;99.90;;;;;;5026989;28;20032;-77
2022/01/08 08:45:18;;;;;;;54.03;49.05;;;8.80;99.90;;;;;;5025541;28;20030;-77
2022/01/08 08:47:44;;;;;;;51.70;46.20;;;8.80;99.90;;;;;;5028010;28;20037;-77
2022/01/08 08:50:12;;;;;;;51.35;46.70;;;8.80;99.90;;;;;;5029244;28;20105;-78
2022/01/08 08:52:38;;;;;;;52.60;48.47;;;8.70;99.90;;;;;;5030758;28;20029;-78
2022/01/08 08:55:06;;;;;;;53.38;48.33;;;8.70;99.90;;;;;;5028957;28;20499;-78
2022/01/08 08:57:32;;;;;;;51.03;46.08;;;8.60;99.90;;;;;;5028917;28;20120;-78
2022/01/08 08:59:58;;;;;;;52.53;47.53;;;8.60;99.90;;;;;;5030189;28;20109;-77
2022/01/08 09:02:24;;;;;;;52.67;47.45;;;8.50;99.90;;;;;;5030214;28;20532;-78
2022/01/08 09:04:50;;;;;;;52.47;47.30;;;8.40;99.90;;;;;;5012135;28;20032;-77
2022/01/08 09:07:17;;;;;;;51.63;46.50;;;8.40;99.90;;;;;;5030717;28;20085;-77
2022/01/08 09:09:43;;;;;;;51.47;46.38;;;8.30;99.90;;;;;;5012207;28;20033;-78
2022/01/08 09:12:13;;;;;;;47.42;43.35;;;8.30;99.90;;;;;;5030500;28;20076;-78
2022/01/08 09:14:39;;;;;;;49.78;44.70;;;8.30;99.90;;;;;;5029160;28;20357;-78
2022/01/08 09:17:05;;;;;;;47.17;42.60;;;8.30;99.90;;;;;;5028754;28;20128;-77
2022/01/08 09:19:32;;;;;;;44.60;39.97;;;8.20;99.90;;;;;;5029831;28;20434;-77
2022/01/08 09:21:58;;;;;;;48.90;42.38;;;8.20;99.90;;;;;;5030101;28;20025;-77
2022/01/08 09:24:24;;;;;;;;;;;8.20;99.90;;;;;;5030342;28;20021;-78
2022/01/08 09:26:49;;;;;;;53.42;41.55;;;8.30;99.90;;;;;;5029523;28;20386;-78
2022/01/08 09:29:16;;;;;;;39.17;35.95;;;8.30;99.90;;;;;;5011545;28;20076;-77
2022/01/08 09:31:42;;;;;;;43.70;35.85;;;8.30;99.90;;;;;;5028302;28;20443;-78
2022/01/08 09:34:09;;;;;;;43.05;34.80;;;8.30;99.90;;;;;;5029377;28;20026;-78
2022/01/08 09:36:37;;;;;;;36.83;32.42;;;8.30;99.90;;;;;;5029354;28;20068;-77
2022/01/08 09:39:04;;;;;;;35.95;29.98;;;8.30;99.90;;;;;;5011660;28;20142;-77
2022/01/08 09:41:30;;;;;;;38.08;31.85;;;8.30;99.90;;;;;;5028250;28;20427;-77
2022/01/08 09:43:56;;;;;;;49.80;31.42;;;8.30;99.90;;;;;;5028157;28;20026;-77
2022/01/08 09:46:21;;;;;;;40.53;31.33;;;8.40;99.90;;;;;;5011610;28;20446;-78
2022/01/08 09:48:48;;;;;;;31.92;23.48;;;8.40;99.90;;;;;;5029327;28;20030;-76
2022/01/08 09:51:14;;;;;;;36.00;27.95;;;8.40;99.90;;;;;;5029064;28;20120;-78
2022/01/08 09:53:40;;;;;;;28.23;24.77;;;8.50;99.90;;;;;;5027787;28;20124;-77
2022/01/08 09:56:06;;;;;;;39.97;25.05;;;8.50;99.90;;;;;;5029299;28;20155;-77
2022/01/08 09:58:33;;;;;;;43.95;24.92;;;8.50;99.90;;;;;;5028689;28;20499;-78
2022/01/08 10:00:59;;;;;;;;;;;8.50;99.90;;;;;;5028233;28;20041;-78
2022/01/08 10:03:31;;;;;;;44.22;22.20;;;8.50;99.90;;;;;;5027795;28;19939;-77
2022/01/08 10:06:01;;;;;;;41.88;19.98;;;8.60;99.90;;;;;;5029764;28;20026;-78
2022/01/08 10:08:31;;;;;;;39.72;18.85;;;8.60;99.90;;;;;;5030861;28;20666;-77
2022/01/08 10:11:03;;;;;;;32.45;15.02;;;8.60;99.90;;;;;;5030059;28;20383;-81
2022/01/08 10:13:35;;;;;;;37.67;13.35;;;8.60;99.90;;;;;;5030320;28;20040;-79
2022/01/08 10:18:46;;;;;;;39.58;10.70;;;8.60;99.90;;;;;;5029601;28;20086;-80
2022/01/08 10:21:16;;;;;;;;;;;8.60;99.90;;;;;;5028588;28;20037;-80
2022/01/08 10:23:44;;;;;;;30.83;7.78;;;8.60;99.90;;;;;;5028458;28;19994;-78
2022/01/08 10:26:15;;;;;;;33.97;7.82;;;8.70;99.90;;;;;;5045085;28;20057;-79
2022/01/08 10:28:54;;;;;;;40.65;9.23;;;8.80;99.90;;;;;;5029710;28;20073;-80
2022/01/08 10:31:29;;;;;;;29.00;8.52;;;8.90;99.90;;;;;;5029375;28;20103;-80
2022/01/08 10:34:00;;;;;;;25.60;8.68;;;8.90;99.90;;;;;;5031090;28;20030;-80
2022/01/08 10:36:33;;;;;;;33.70;9.50;;;8.90;99.90;;;;;;5032433;28;20072;-79
2022/01/08 10:39:00;;;;;;;32.28;9.32;;;8.70;99.90;;;;;;5033394;28;20033;-81
2022/01/08 10:41:28;;;;;;;27.33;8.80;;;8.70;99.90;;;;;;5032716;28;20465;-81
2022/01/08 10:44:09;;;;;;;37.03;9.85;;;8.60;99.90;;;;;;5030788;28;20060;-79
2022/01/08 10:46:36;;;;;;;24.95;7.38;;;8.60;99.90;;;;;;5030780;28;20029;-82
2022/01/08 10:49:08;;;;;;;34.65;8.13;;;8.80;99.90;;;;;;5031208;28;20025;-80
2022/01/08 10:51:39;;;;;;;45.70;6.97;;;9.00;99.90;;;;;;5031891;28;20379;-81
2022/01/08 10:54:10;;;;;;;24.83;6.47;;;9.40;99.90;;;;;;5015475;28;20391;-79
2022/01/08 10:56:49;;;;;;;29.88;7.22;;;9.90;99.90;;;;;;5032218;28;20458;-81
2022/01/08 10:59:25;;;;;;;36.88;9.05;;;10.10;99.90;;;;;;5031996;28;20040;-80
2022/01/08 11:02:06;;;;;;;26.35;6.55;;;10.00;99.90;;;;;;5014369;28;20442;-68
2022/01/08 11:04:47;;;;;;;32.65;7.78;;;10.00;99.90;;;;;;5031604;28;20079;-78
2022/01/08 11:07:18;;;;;;;22.73;5.90;;;10.00;99.90;;;;;;5030207;28;20083;-80
2022/01/08 11:09:49;;;;;;;27.05;4.75;;;10.00;99.90;;;;;;5029839;28;20036;-77
2022/01/08 11:12:18;;;;;;;23.67;4.20;;;10.40;99.90;;;;;;5031599;28;20029;-77
2022/01/08 11:17:35;;;;;;;17.23;3.55;;;11.60;99.90;;;;;;5029656;28;20018;-78
2022/01/08 11:20:13;;;;;;;19.20;3.85;;;12.10;99.90;;;;;;5029201;28;20037;-78
2022/01/08 11:22:45;;;;;;;25.58;5.18;;;12.60;99.90;;;;;;5029949;28;20022;-77
2022/01/08 11:25:14;;;;;;;20.05;4.05;;;13.00;99.90;;;;;;5029529;28;20025;-78
2022/01/08 11:28:00;;;;;;;22.92;4.07;;;13.30;99.90;;;;;;5028684;28;20018;-77
2022/01/08 11:30:30;;;;;;;20.08;3.83;;;13.60;99.90;;;;;;5028475;28;20047;-79
2022/01/08 11:33:01;;;;;;;24.63;4.28;;;13.90;99.90;;;;;;5028022;28;20071;-79
2022/01/08 11:35:27;;;;;;;21.95;3.80;;;14.00;99.90;;;;;;5029598;28;20037;-78
2022/01/08 11:37:55;;;;;;;;;;;14.10;99.60;;;;;;5030032;28;20030;-78
2022/01/08 11:40:24;;;;;;;22.63;3.80;;;14.20;99.20;;;;;;5029747;28;20325;-77
2022/01/08 11:42:50;;;;;;;35.13;5.90;;;14.30;99.30;;;;;;5029330;28;20021;-79
2022/01/08 11:45:24;;;;;;;11.50;3.22;;;14.50;99.10;;;;;;5011839;28;20095;-78
2022/01/08 11:47:53;;;;;;;17.02;3.90;;;14.60;98.20;;;;;;5028295;28;20026;-80
2022/01/08 11:50:22;;;;;;;17.30;3.88;;;14.60;97.70;;;;;;5031707;28;20071;-79
2022/01/08 11:53:21;;;;;;;18.77;4.93;;;14.30;96.20;;;;;;5030772;28;20075;-79
2022/01/08 11:55:56;;;;;;;23.27;4.72;;;13.70;95.60;;;;;;5033062;28;20029;-79
2022/01/08 11:58:26;;;;;;;18.13;4.25;;;13.50;96.70;;;;;;5028455;28;20128;-77
2022/01/08 12:01:04;;;;;;;20.80;3.63;;;13.70;97.20;;;;;;5028643;28;20409;-79
2022/01/08 12:03:32;;;;;;;19.55;4.03;;;13.90;96.50;;;;;;5029397;28;20030;-79
2022/01/08 12:06:18;;;;;;;21.63;3.83;;;14.10;96.50;;;;;;5029123;28;20025;-80
2022/01/08 12:09:25;;;;;;;19.42;3.30;;;14.10;95.50;;;;;;5027745;28;20039;-80
2022/01/08 12:11:57;;;;;;;19.58;3.28;;;14.10;94.70;;;;;;5029910;28;20410;-78
2022/01/08 12:17:50;;;;;;;22.55;3.25;;;14.10;94.90;;;;;;5031463;28;20037;-79
2022/01/08 12:20:53;;;;;;;14.85;3.58;;;14.20;94.20;;;;;;5027572;28;20037;-81
2022/01/08 12:23:39;;;;;;;13.73;3.22;;;14.20;94.00;;;;;;5034594;28;20107;-81
2022/01/08 12:26:28;;;;;;;17.02;2.95;;;14.10;93.00;;;;;;5032220;28;20106;-81
2022/01/08 12:29:03;;;;;;;20.67;4.18;;;14.00;92.70;;;;;;5032669;28;20050;-81
2022/01/08 12:31:49;;;;;;;22.70;3.75;;;13.90;92.40;;;;;;5032513;28;20068;-79
2022/01/08 12:34:33;;;;;;;14.55;3.85;;;13.90;92.70;;;;;;5033468;28;20061;-79
2022/01/08 12:37:11;;;;;;;11.85;2.80;;;13.90;92.60;;;;;;5013412;28;20721;-81
2022/01/08 12:39:43;;;;;;;17.13;3.38;;;13.70;91.40;;;;;;5013032;28;20026;-79
2022/01/08 12:42:24;;;;;;;11.15;2.78;;;13.20;90.70;;;;;;5015821;28;20022;-76
2022/01/08 12:44:55;;;;;;;12.00;2.80;;;12.70;90.60;;;;;;5014917;28;20083;-78
2022/01/08 12:47:40;;;;;;;14.98;2.97;;;12.20;90.70;;;;;;5014870;28;20113;-79
2022/01/08 12:50:41;;;;;;;14.10;2.72;;;11.70;90.70;;;;;;5012699;28;20026;-78
2022/01/08 12:53:07;;;;;;;14.48;2.30;;;11.30;90.90;;;;;;5015135;28;20022;-78
2022/01/08 12:56:02;;;;;;;12.15;2.60;;;11.00;91.10;;;;;;5016170;28;20596;-78
2022/01/08 12:58:33;;;;;;;10.52;1.80;;;10.70;91.00;;;;;;5009868;28;20046;-79
2022/01/08 13:01:03;;;;;;;7.00;1.85;;;10.40;91.20;;;;;;5012501;28;20021;-79
2022/01/08 13:03:32;;;;;;;11.90;2.25;;;10.20;91.50;;;;;;5015440;28;20133;-79
2022/01/08 13:06:18;;;;;;;13.23;2.15;;;10.10;91.60;;;;;;5016201;28;20054;-78
2022/01/08 13:08:47;;;;;;;12.02;2.55;;;10.00;91.40;;;;;;5013483;28;20065;-80
2022/01/08 13:11:16;;;;;;;10.48;2.58;;;9.80;91.50;;;;;;5013304;28;20030;-78
2022/01/08 13:13:46;;;;;;;15.23;2.88;;;9.70;91.60;;;;;;5012509;28;20056;-77
2022/01/08 13:16:13;;;;;;;7.53;2.10;;;9.60;91.90;;;;;;5012245;28;20038;-79